YBAD weather

Baradine Airport
New South Wales, Australia

Public forecast

Using degrees Celsius for public forecast. Weather courtesy of forecast.io.

Closest aviation weather report (METAR) to Baradine Airport

Closest report is Coonabarabran Airport, 24.4 nm (45.2 km) SSE. Retrieved 2020/07/03 16:00 UTC (26 minutes ago):

YCBB 031600Z AUTO 32006KT //// // NCD 06/01 Q1021

Closest aviation forecast (TAF) to Baradine Airport

Closest forecast is Dubbo City Regional Airport, 80.2 nm (148.6 km) SSW. Retrieved 2020/07/03 12:37 UTC (4 hours ago):

TAF YSDU 031123Z 0312/0406 32005KT CAVOK FM031400 24012KT 9999 -SHRA SCT040 FM031800 23012KT 9999 NSW BKN020 FM040000 23012KT 9999 SCT030